createdAt,value
2023-05-21T00:00:58.124Z,12.4
2023-05-21T00:03:58.184Z,12.4
2023-05-21T00:06:58.116Z,12.3
2023-05-21T00:09:58.112Z,12.3
2023-05-21T00:12:58.122Z,12.3
2023-05-21T00:15:58.134Z,12.3
2023-05-21T00:18:58.294Z,12.2
2023-05-21T00:21:58.134Z,12.2
2023-05-21T00:24:58.136Z,12.1
2023-05-21T00:27:58.140Z,12.1
2023-05-21T00:30:58.150Z,12
2023-05-21T00:33:58.137Z,12
2023-05-21T00:36:58.146Z,11.9
2023-05-21T00:39:58.424Z,11.9
2023-05-21T00:42:58.145Z,11.9
2023-05-21T00:45:58.192Z,11.8
2023-05-21T00:48:58.170Z,11.7
2023-05-21T00:51:58.154Z,11.7
2023-05-21T00:54:58.162Z,11.6
2023-05-21T00:57:58.163Z,11.6
2023-05-21T01:00:58.246Z,11.6
2023-05-21T01:03:58.163Z,11.6
2023-05-21T01:06:58.178Z,11.5
2023-05-21T01:09:58.175Z,11.5
2023-05-21T01:12:58.182Z,11.6
2023-05-21T01:15:58.194Z,11.5
2023-05-21T01:18:58.233Z,11.5
2023-05-21T01:21:58.181Z,11.5
2023-05-21T01:24:58.189Z,11.5
2023-05-21T01:27:58.195Z,11.5
2023-05-21T01:30:58.209Z,11.4
2023-05-21T01:33:58.226Z,11.4
2023-05-21T01:36:58.203Z,11.4
2023-05-21T01:39:58.202Z,11.3
2023-05-21T01:42:58.225Z,11.3
2023-05-21T01:45:58.254Z,11.2
2023-05-21T01:48:58.218Z,11.2
2023-05-21T01:51:58.225Z,11.1
2023-05-21T01:54:58.236Z,11.1
2023-05-21T01:57:59.065Z,11
2023-05-21T02:00:58.273Z,11
2023-05-21T02:03:58.386Z,11
2023-05-21T02:06:58.255Z,11
2023-05-21T02:09:58.254Z,11
2023-05-21T02:12:58.260Z,10.9
2023-05-21T02:15:58.291Z,10.9
2023-05-21T02:18:58.288Z,10.9
2023-05-21T02:21:58.276Z,10.8
2023-05-21T02:24:58.288Z,10.8
2023-05-21T02:27:58.291Z,10.8
2023-05-21T02:30:58.295Z,10.7
2023-05-21T02:33:58.380Z,10.7
2023-05-21T02:36:58.308Z,10.7
2023-05-21T02:39:58.317Z,10.6
2023-05-21T02:42:58.324Z,10.6
2023-05-21T02:45:58.348Z,10.6
2023-05-21T02:48:58.319Z,10.5
2023-05-21T02:51:58.322Z,10.5
2023-05-21T02:54:58.325Z,10.5
2023-05-21T02:57:58.338Z,10.5
2023-05-21T03:00:58.374Z,10.4
2023-05-21T03:03:58.350Z,10.5
2023-05-21T03:06:58.352Z,10.4
2023-05-21T03:09:58.354Z,10.4
2023-05-21T03:12:58.380Z,10.4
2023-05-21T03:15:58.376Z,10.4
2023-05-21T03:18:58.392Z,10.4
2023-05-21T03:21:58.376Z,10.4
2023-05-21T03:24:58.393Z,10.4
2023-05-21T03:27:58.397Z,10.4
2023-05-21T03:30:58.421Z,10.4
2023-05-21T03:33:58.405Z,10.5
2023-05-21T03:36:58.411Z,10.5
2023-05-21T03:39:58.425Z,10.5
2023-05-21T03:42:58.416Z,10.5
2023-05-21T03:45:58.430Z,10.6
2023-05-21T03:48:58.428Z,10.6
2023-05-21T03:51:58.442Z,10.7
2023-05-21T03:54:58.441Z,10.7
2023-05-21T03:57:58.446Z,10.8
2023-05-21T04:00:58.465Z,10.8
2023-05-21T04:03:58.499Z,10.9
2023-05-21T04:06:58.467Z,10.9
2023-05-21T04:09:58.473Z,11
2023-05-21T04:12:58.485Z,11
2023-05-21T04:15:58.521Z,11.1
2023-05-21T04:18:58.502Z,11.1
2023-05-21T04:21:58.498Z,11.2
2023-05-21T04:24:58.503Z,11.3
2023-05-21T04:27:58.507Z,11.3
2023-05-21T04:30:58.538Z,11.4
2023-05-21T04:33:58.512Z,11.5
2023-05-21T04:36:58.530Z,11.6
2023-05-21T04:39:58.543Z,11.8
2023-05-21T04:42:58.549Z,11.9
2023-05-21T04:45:58.565Z,12
2023-05-21T04:48:58.549Z,12.2
2023-05-21T04:51:58.555Z,12.2
2023-05-21T04:54:58.566Z,12.3
2023-05-21T04:57:58.577Z,12.4
2023-05-21T05:00:58.616Z,12.5
2023-05-21T05:03:58.659Z,12.7
2023-05-21T05:06:58.607Z,12.8
2023-05-21T05:09:58.603Z,12.9
2023-05-21T05:12:58.610Z,13
2023-05-21T05:15:58.632Z,13.2
2023-05-21T05:18:58.635Z,13.3
2023-05-21T05:21:58.629Z,13.4
2023-05-21T05:24:58.638Z,13.6
2023-05-21T05:27:58.635Z,13.7
2023-05-21T05:30:58.700Z,13.9
2023-05-21T05:33:58.659Z,14
2023-05-21T05:36:58.660Z,14.2
2023-05-21T05:39:58.658Z,14.5
2023-05-21T05:42:58.668Z,14.8
2023-05-21T05:45:58.737Z,15.1
2023-05-21T05:48:58.679Z,15.5
2023-05-21T05:51:58.680Z,15.9
2023-05-21T05:54:58.688Z,16.2
2023-05-21T05:57:58.689Z,16.3
2023-05-21T06:00:58.702Z,16.5
2023-05-21T06:03:58.736Z,16.6
2023-05-21T06:06:58.732Z,16.8
2023-05-21T06:09:58.704Z,16.9
2023-05-21T06:12:58.706Z,16.8
2023-05-21T06:15:58.732Z,16.8
2023-05-21T06:18:58.802Z,16.6
2023-05-21T06:21:58.717Z,16.6
2023-05-21T06:24:58.721Z,16.6
2023-05-21T06:27:58.727Z,16.6
2023-05-21T06:30:58.758Z,16.8
2023-05-21T06:33:58.837Z,17.2
2023-05-21T06:36:58.740Z,17.5
2023-05-21T06:39:58.745Z,17.5
2023-05-21T06:42:58.752Z,17.6
2023-05-21T06:45:58.775Z,17.7
2023-05-21T06:48:58.755Z,17.7
2023-05-21T06:51:58.764Z,17.7
2023-05-21T06:54:58.766Z,17.7
2023-05-21T06:57:58.758Z,17.8
2023-05-21T07:00:58.833Z,17.8
2023-05-21T07:03:58.760Z,17.9
2023-05-21T07:06:58.819Z,18.1
2023-05-21T07:09:58.771Z,18.4
2023-05-21T07:12:58.767Z,18.6
2023-05-21T07:15:58.785Z,18.9
2023-05-21T07:18:58.812Z,19.3
2023-05-21T07:21:58.788Z,19.9
2023-05-21T07:24:58.784Z,20.5
2023-05-21T07:27:58.805Z,20.8
2023-05-21T07:30:58.862Z,21
2023-05-21T07:33:58.810Z,21
2023-05-21T07:36:58.825Z,21.2
2023-05-21T07:39:58.825Z,21.7
2023-05-21T07:42:58.848Z,22.3
2023-05-21T07:45:58.884Z,22.6
2023-05-21T07:48:58.862Z,22.6
2023-05-21T07:51:58.874Z,22.7
2023-05-21T07:54:58.920Z,22.8
2023-05-21T07:57:58.894Z,22.6
2023-05-21T08:00:58.914Z,22.5
2023-05-21T08:03:59.014Z,22.4
2023-05-21T08:06:58.931Z,22.3
2023-05-21T08:09:58.949Z,22
2023-05-21T08:12:58.950Z,21.8
2023-05-21T08:15:59.000Z,21.7
2023-05-21T08:18:59.021Z,21.6
2023-05-21T08:21:58.989Z,21.6
2023-05-21T08:24:58.997Z,21.4
2023-05-21T08:27:59.002Z,21.5
2023-05-21T08:30:59.025Z,21.5
2023-05-21T08:33:59.034Z,21.5
2023-05-21T08:36:59.038Z,21.4
2023-05-21T08:39:59.054Z,21.4
2023-05-21T08:42:59.064Z,21.4
2023-05-21T08:45:59.333Z,21.3
2023-05-21T08:48:59.092Z,21.4
2023-05-21T08:51:59.098Z,21.4
2023-05-21T08:54:59.107Z,21.5
2023-05-21T08:57:59.127Z,21.7
2023-05-21T09:00:59.155Z,21.9
2023-05-21T09:04:05.252Z,22
2023-05-21T09:06:59.195Z,22.2
2023-05-21T09:09:59.175Z,22.3
2023-05-21T09:12:59.185Z,22.4
2023-05-21T09:15:59.215Z,22.6
2023-05-21T09:18:59.391Z,22.7
2023-05-21T09:21:59.223Z,23
2023-05-21T09:24:59.244Z,23.4
2023-05-21T09:27:59.245Z,24
2023-05-21T09:30:59.293Z,24.6
2023-05-21T09:33:59.273Z,24.8
2023-05-21T09:36:59.296Z,25
2023-05-21T09:39:59.311Z,25.2
2023-05-21T09:42:59.325Z,25.1
2023-05-21T09:46:01.190Z,25
2023-05-21T09:48:59.342Z,24.9
2023-05-21T09:51:59.358Z,24.9
2023-05-21T09:54:59.373Z,24.9
2023-05-21T09:57:59.390Z,25
2023-05-21T10:00:59.415Z,25.1
2023-05-21T10:03:59.460Z,25.4
2023-05-21T10:06:59.430Z,25.6
2023-05-21T10:09:59.454Z,25.6
2023-05-21T10:12:59.470Z,25.5
2023-05-21T10:15:59.514Z,25.6
2023-05-21T10:18:59.531Z,25.7
2023-05-21T10:21:59.506Z,25.9
2023-05-21T10:24:59.518Z,26
2023-05-21T10:27:59.525Z,26
2023-05-21T10:30:59.550Z,26.1
2023-05-21T10:33:59.548Z,26.2
2023-05-21T10:36:59.555Z,26.4
2023-05-21T10:39:59.560Z,26.4
2023-05-21T10:42:59.563Z,26.7
2023-05-21T10:45:59.621Z,27.2
2023-05-21T10:48:59.578Z,27.6
2023-05-21T10:51:59.582Z,27.8
2023-05-21T10:54:59.597Z,28.1
2023-05-21T10:57:59.604Z,28
2023-05-21T11:00:59.655Z,28
2023-05-21T11:03:59.645Z,27.9
2023-05-21T11:06:59.615Z,28
2023-05-21T11:09:59.624Z,28.3
2023-05-21T11:12:59.620Z,28.9
2023-05-21T11:15:59.686Z,29.3
2023-05-21T11:18:59.747Z,29.3
2023-05-21T11:21:59.655Z,29
2023-05-21T11:24:59.659Z,28.7
2023-05-21T11:27:59.658Z,28.6
2023-05-21T11:30:59.674Z,28.7
2023-05-21T11:33:59.684Z,29
2023-05-21T11:36:59.686Z,29
2023-05-21T11:39:59.690Z,29.1
2023-05-21T11:42:59.703Z,29.2
2023-05-21T11:45:59.717Z,29.3
2023-05-21T11:48:59.708Z,29.3
2023-05-21T11:51:59.714Z,29.4
2023-05-21T11:54:59.751Z,29.5
2023-05-21T11:57:59.751Z,29.5
2023-05-21T12:00:59.764Z,29.3
2023-05-21T12:03:59.783Z,29.1
2023-05-21T12:06:59.760Z,29
2023-05-21T12:09:59.827Z,29
2023-05-21T12:12:59.794Z,29.1
2023-05-21T12:15:59.823Z,29.1
2023-05-21T12:18:59.883Z,29
2023-05-21T12:21:59.801Z,29.1
2023-05-21T12:24:59.820Z,29.1
2023-05-21T12:27:59.835Z,29.1
2023-05-21T12:30:59.884Z,29.1
2023-05-21T12:33:59.849Z,28.9
2023-05-21T12:36:59.859Z,28.6
2023-05-21T12:39:59.867Z,28.4
2023-05-21T12:42:59.870Z,28.3
2023-05-21T12:45:59.923Z,28.3
2023-05-21T12:48:59.874Z,28.4
2023-05-21T12:51:59.887Z,28.6
2023-05-21T12:54:59.898Z,28.8
2023-05-21T12:57:59.902Z,29.1
2023-05-21T13:00:59.927Z,29.2
2023-05-21T13:03:59.936Z,29.3
2023-05-21T13:06:59.904Z,29.3
2023-05-21T13:09:59.921Z,29.4
2023-05-21T13:12:59.928Z,29.4
2023-05-21T13:15:59.952Z,29.3
2023-05-21T13:18:59.946Z,29.3
2023-05-21T13:21:59.947Z,29.4
2023-05-21T13:24:59.949Z,29.5
2023-05-21T13:27:59.947Z,29.5
2023-05-21T13:30:59.956Z,29.3
2023-05-21T13:33:59.980Z,29.2
2023-05-21T13:36:59.970Z,29.1
2023-05-21T13:39:59.975Z,29.1
2023-05-21T13:42:59.994Z,29
2023-05-21T13:46:00.009Z,28.9
2023-05-21T13:48:59.986Z,28.8
2023-05-21T13:52:00.004Z,28.9
2023-05-21T13:55:00.006Z,29
2023-05-21T13:57:59.997Z,29.1
2023-05-21T14:01:00.043Z,29
2023-05-21T14:04:00.013Z,28.8
2023-05-21T14:07:00.023Z,28.8
2023-05-21T14:10:00.032Z,28.6
2023-05-21T14:13:07.675Z,28.4
2023-05-21T14:16:00.070Z,28.4
2023-05-21T14:19:00.061Z,28.3
2023-05-21T14:22:00.041Z,28.4
2023-05-21T14:25:00.056Z,28.4
2023-05-21T14:28:00.070Z,28.5
2023-05-21T14:31:00.135Z,28.5
2023-05-21T14:34:00.068Z,28.5
2023-05-21T14:37:00.068Z,28.5
2023-05-21T14:40:00.114Z,28.4
2023-05-21T14:43:00.142Z,28.3
2023-05-21T14:46:00.203Z,28.2
2023-05-21T14:49:00.151Z,28.2
2023-05-21T14:52:00.130Z,28.3
2023-05-21T14:55:00.199Z,28.4
2023-05-21T14:58:00.187Z,28.4
2023-05-21T15:01:00.265Z,28.4
2023-05-21T15:04:00.495Z,28.4
2023-05-21T15:07:00.163Z,28.4
2023-05-21T15:10:00.184Z,28.4
2023-05-21T15:13:00.234Z,28.5
2023-05-21T15:16:00.300Z,28.6
2023-05-21T15:19:00.306Z,28.9
2023-05-21T15:22:00.216Z,29
2023-05-21T15:25:00.296Z,29.1
2023-05-21T15:28:00.173Z,29.1
2023-05-21T15:31:00.309Z,29.1
2023-05-21T15:34:00.504Z,29.1
2023-05-21T15:37:00.168Z,29
2023-05-21T15:40:00.296Z,28.9
2023-05-21T15:43:00.192Z,28.9
2023-05-21T15:46:00.186Z,28.9
2023-05-21T15:49:00.197Z,28.9
2023-05-21T15:52:00.202Z,28.9
2023-05-21T15:55:00.204Z,29
2023-05-21T15:58:01.993Z,29.1
2023-05-21T16:01:00.294Z,29.1
2023-05-21T16:04:00.290Z,29
2023-05-21T16:07:00.225Z,28.9
2023-05-21T16:10:00.229Z,28.8
2023-05-21T16:13:00.217Z,28.5
2023-05-21T16:16:00.248Z,28.3
2023-05-21T16:19:00.266Z,28.2
2023-05-21T16:22:00.256Z,28.2
2023-05-21T16:25:00.253Z,28.1
2023-05-21T16:28:00.248Z,28
2023-05-21T16:31:00.269Z,27.9
2023-05-21T16:34:00.272Z,27.7
2023-05-21T16:37:00.278Z,27.6
2023-05-21T16:40:00.286Z,27.4
2023-05-21T16:43:01.997Z,27.3
2023-05-21T16:46:00.334Z,27.1
2023-05-21T16:49:00.293Z,27
2023-05-21T16:52:00.293Z,26.8
2023-05-21T16:55:00.298Z,26.8
2023-05-21T16:58:00.303Z,26.7
2023-05-21T17:01:00.299Z,26.6
2023-05-21T17:04:00.445Z,26.5
2023-05-21T17:07:00.318Z,26.5
2023-05-21T17:10:00.325Z,26.5
2023-05-21T17:13:06.826Z,26.4
2023-05-21T17:16:00.357Z,26.4
2023-05-21T17:19:00.364Z,26.4
2023-05-21T17:22:00.342Z,26.5
2023-05-21T17:25:00.349Z,26.5
2023-05-21T17:28:00.349Z,26.6
2023-05-21T17:31:00.450Z,26.6
2023-05-21T17:34:00.364Z,26.5
2023-05-21T17:37:00.363Z,26.5
2023-05-21T17:40:00.364Z,26.4
2023-05-21T17:43:00.379Z,26.2
2023-05-21T17:46:00.391Z,26.1
2023-05-21T17:49:00.380Z,25.9
2023-05-21T17:52:00.389Z,25.8
2023-05-21T17:55:00.406Z,25.6
2023-05-21T17:58:00.421Z,25.5
2023-05-21T18:01:00.435Z,25.4
2023-05-21T18:04:00.422Z,25.2
2023-05-21T18:07:00.408Z,25.1
2023-05-21T18:10:00.414Z,25
2023-05-21T18:13:00.418Z,24.8
2023-05-21T18:16:00.426Z,24.7
2023-05-21T18:19:00.471Z,24.6
2023-05-21T18:22:00.438Z,24.4
2023-05-21T18:25:00.462Z,24.4
2023-05-21T18:28:00.446Z,24.2
2023-05-21T18:31:00.470Z,24.2
2023-05-21T18:34:00.456Z,24
2023-05-21T18:37:00.477Z,23.9
2023-05-21T18:40:00.471Z,23.8
2023-05-21T18:43:00.469Z,23.7
2023-05-21T18:46:00.512Z,23.6
2023-05-21T18:49:00.496Z,23.5
2023-05-21T18:52:00.484Z,23.3
2023-05-21T18:55:00.487Z,23.1
2023-05-21T18:58:00.500Z,22.9
2023-05-21T19:01:00.519Z,22.8
2023-05-21T19:04:00.503Z,22.6
2023-05-21T19:07:00.511Z,22.5
2023-05-21T19:10:00.521Z,22.3
2023-05-21T19:13:00.520Z,22.2
2023-05-21T19:16:00.582Z,22.1
2023-05-21T19:19:00.542Z,22
2023-05-21T19:22:00.536Z,21.9
2023-05-21T19:25:00.560Z,21.8
2023-05-21T19:28:00.551Z,21.8
2023-05-21T19:31:00.560Z,21.7
2023-05-21T19:34:00.613Z,21.7
2023-05-21T19:37:00.561Z,21.6
2023-05-21T19:40:00.561Z,21.6
2023-05-21T19:43:00.564Z,21.5
2023-05-21T19:46:00.665Z,21.4
2023-05-21T19:49:00.576Z,21.4
2023-05-21T19:52:00.578Z,21.3
2023-05-21T19:55:00.583Z,21.3
2023-05-21T19:58:00.588Z,21.2
2023-05-21T20:01:00.653Z,21.1
2023-05-21T20:04:00.696Z,21.1
2023-05-21T20:07:00.602Z,21.1
2023-05-21T20:10:00.595Z,21
2023-05-21T20:13:00.618Z,21
2023-05-21T20:16:00.636Z,20.9
2023-05-21T20:19:00.649Z,20.9
2023-05-21T20:22:00.633Z,20.9
2023-05-21T20:25:00.635Z,20.8
2023-05-21T20:28:00.649Z,20.8
2023-05-21T20:31:00.661Z,20.8
2023-05-21T20:34:00.639Z,20.7
2023-05-21T20:37:00.662Z,20.6
2023-05-21T20:40:00.674Z,20.5
2023-05-21T20:43:00.661Z,20.3
2023-05-21T20:46:00.710Z,20.2
2023-05-21T20:49:00.677Z,20.1
2023-05-21T20:52:00.667Z,20
2023-05-21T20:55:00.675Z,20
2023-05-21T20:58:00.681Z,20
2023-05-21T21:01:00.698Z,20.1
2023-05-21T21:04:00.729Z,20.1
2023-05-21T21:07:00.682Z,20.2
2023-05-21T21:10:00.687Z,20.2
2023-05-21T21:13:00.690Z,20.2
2023-05-21T21:16:00.737Z,20.2
2023-05-21T21:19:00.757Z,20.3
2023-05-21T21:22:00.709Z,20.3
2023-05-21T21:25:00.720Z,20.3
2023-05-21T21:28:00.721Z,20.2
2023-05-21T21:31:00.782Z,20.2
2023-05-21T21:34:00.794Z,20.2
2023-05-21T21:37:00.738Z,20.2
2023-05-21T21:40:00.744Z,20.2
2023-05-21T21:43:00.737Z,20.2
2023-05-21T21:46:00.833Z,20.1
2023-05-21T21:49:00.749Z,20.1
2023-05-21T21:52:00.763Z,20
2023-05-21T21:55:00.761Z,20
2023-05-21T21:58:00.764Z,19.9
2023-05-21T22:01:00.805Z,19.8
2023-05-21T22:04:00.801Z,19.7
2023-05-21T22:07:00.767Z,19.6
2023-05-21T22:10:00.776Z,19.6
2023-05-21T22:13:00.779Z,19.5
2023-05-21T22:16:00.801Z,19.5
2023-05-21T22:19:00.794Z,19.4
2023-05-21T22:22:00.788Z,19.2
2023-05-21T22:25:00.794Z,19.1
2023-05-21T22:28:00.796Z,19.1
2023-05-21T22:31:00.820Z,19
2023-05-21T22:34:00.807Z,18.9
2023-05-21T22:37:00.797Z,18.9
2023-05-21T22:40:00.806Z,18.8
2023-05-21T22:43:00.814Z,18.7
2023-05-21T22:46:00.841Z,18.7
2023-05-21T22:49:00.809Z,18.7
2023-05-21T22:52:00.825Z,18.6
2023-05-21T22:55:00.849Z,18.6
2023-05-21T22:58:00.819Z,18.5
2023-05-21T23:01:00.836Z,18.3
2023-05-21T23:04:00.824Z,18.2
2023-05-21T23:07:00.828Z,18
2023-05-21T23:10:00.822Z,17.8
2023-05-21T23:13:00.824Z,17.6
2023-05-21T23:16:00.840Z,17.5
2023-05-21T23:19:00.854Z,17.4
2023-05-21T23:22:00.826Z,17.3
2023-05-21T23:25:00.852Z,17.2
2023-05-21T23:28:00.857Z,17.1
2023-05-21T23:31:00.874Z,17.1
2023-05-21T23:34:00.870Z,17
2023-05-21T23:37:00.910Z,16.9
2023-05-21T23:40:00.916Z,16.8
2023-05-21T23:43:00.927Z,16.8
2023-05-21T23:46:01.028Z,16.8
2023-05-21T23:49:00.951Z,16.8
2023-05-21T23:52:00.965Z,16.9
2023-05-21T23:55:00.977Z,17
2023-05-21T23:58:00.972Z,17
